sensor_id;sensor_type;location;lat;lon;timestamp;P1;durP1;ratioP1;P2;durP2;ratioP2
20749;SDS011;10535;50.664;4.564;2023-05-10T00:30:12;13.47;;;5.50;;
20749;SDS011;10535;50.664;4.564;2023-05-10T00:36:18;8.20;;;4.07;;
20749;SDS011;10535;50.664;4.564;2023-05-10T00:42:24;11.10;;;5.23;;
20749;SDS011;10535;50.664;4.564;2023-05-10T00:45:17;11.03;;;4.60;;
20749;SDS011;10535;50.664;4.564;2023-05-10T00:58:47;9.40;;;5.10;;
20749;SDS011;10535;50.664;4.564;2023-05-10T01:04:56;9.43;;;5.10;;
20749;SDS011;10535;50.664;4.564;2023-05-10T01:35:42;15.97;;;6.17;;
20749;SDS011;10535;50.664;4.564;2023-05-10T01:57:25;9.63;;;5.47;;
20749;SDS011;10535;50.664;4.564;2023-05-10T02:00:33;11.57;;;5.63;;
20749;SDS011;10535;50.664;4.564;2023-05-10T02:09:10;10.97;;;5.80;;
20749;SDS011;10535;50.664;4.564;2023-05-10T02:12:42;17.30;;;6.13;;
20749;SDS011;10535;50.664;4.564;2023-05-10T02:16:10;12.20;;;6.03;;
20749;SDS011;10535;50.664;4.564;2023-05-10T02:26:04;11.53;;;6.30;;
20749;SDS011;10535;50.664;4.564;2023-05-10T02:31:40;13.93;;;5.23;;
20749;SDS011;10535;50.664;4.564;2023-05-10T02:35:25;11.03;;;5.23;;
20749;SDS011;10535;50.664;4.564;2023-05-10T02:38:01;14.33;;;5.53;;
20749;SDS011;10535;50.664;4.564;2023-05-10T02:40:27;11.60;;;5.70;;
20749;SDS011;10535;50.664;4.564;2023-05-10T02:43:06;11.50;;;5.87;;
20749;SDS011;10535;50.664;4.564;2023-05-10T02:45:38;11.50;;;5.43;;
20749;SDS011;10535;50.664;4.564;2023-05-10T02:48:08;9.70;;;5.47;;
20749;SDS011;10535;50.664;4.564;2023-05-10T02:51:07;14.10;;;5.83;;
20749;SDS011;10535;50.664;4.564;2023-05-10T02:54:49;10.20;;;5.50;;
20749;SDS011;10535;50.664;4.564;2023-05-10T02:57:51;11.97;;;5.47;;
20749;SDS011;10535;50.664;4.564;2023-05-10T03:00:39;15.07;;;6.77;;
20749;SDS011;10535;50.664;4.564;2023-05-10T03:03:08;11.43;;;6.07;;
20749;SDS011;10535;50.664;4.564;2023-05-10T03:05:37;11.40;;;5.33;;
20749;SDS011;10535;50.664;4.564;2023-05-10T03:08:10;13.33;;;5.97;;
20749;SDS011;10535;50.664;4.564;2023-05-10T03:14:04;11.60;;;5.10;;
20749;SDS011;10535;50.664;4.564;2023-05-10T03:17:15;10.63;;;5.17;;
20749;SDS011;10535;50.664;4.564;2023-05-10T03:20:16;13.47;;;6.60;;
20749;SDS011;10535;50.664;4.564;2023-05-10T03:23:26;11.87;;;5.37;;
20749;SDS011;10535;50.664;4.564;2023-05-10T03:26:09;12.23;;;6.00;;
20749;SDS011;10535;50.664;4.564;2023-05-10T03:28:51;11.87;;;5.03;;
20749;SDS011;10535;50.664;4.564;2023-05-10T03:31:21;14.70;;;5.83;;
20749;SDS011;10535;50.664;4.564;2023-05-10T03:33:49;14.20;;;5.93;;
20749;SDS011;10535;50.664;4.564;2023-05-10T03:36:35;13.90;;;6.33;;
20749;SDS011;10535;50.664;4.564;2023-05-10T03:40:01;16.23;;;6.97;;
20749;SDS011;10535;50.664;4.564;2023-05-10T03:42:49;13.53;;;6.00;;
20749;SDS011;10535;50.664;4.564;2023-05-10T03:45:53;13.63;;;5.70;;
20749;SDS011;10535;50.664;4.564;2023-05-10T03:48:32;12.93;;;5.00;;
20749;SDS011;10535;50.664;4.564;2023-05-10T03:51:18;12.50;;;5.80;;
20749;SDS011;10535;50.664;4.564;2023-05-10T03:54:05;9.20;;;4.97;;
20749;SDS011;10535;50.664;4.564;2023-05-10T03:57:17;9.73;;;5.03;;
20749;SDS011;10535;50.664;4.564;2023-05-10T03:59:45;13.97;;;5.50;;
20749;SDS011;10535;50.664;4.564;2023-05-10T04:02:12;14.13;;;5.70;;
20749;SDS011;10535;50.664;4.564;2023-05-10T04:05:27;14.00;;;6.17;;
20749;SDS011;10535;50.664;4.564;2023-05-10T04:08:21;11.27;;;5.50;;
20749;SDS011;10535;50.664;4.564;2023-05-10T04:11:49;10.40;;;5.47;;
20749;SDS011;10535;50.664;4.564;2023-05-10T04:14:44;12.00;;;5.20;;
20749;SDS011;10535;50.664;4.564;2023-05-10T04:18:08;9.40;;;5.20;;
20749;SDS011;10535;50.664;4.564;2023-05-10T04:21:27;12.53;;;5.27;;
20749;SDS011;10535;50.664;4.564;2023-05-10T04:24:18;7.77;;;4.40;;
20749;SDS011;10535;50.664;4.564;2023-05-10T04:27:11;17.73;;;5.03;;
20749;SDS011;10535;50.664;4.564;2023-05-10T04:29:37;14.37;;;5.50;;
20749;SDS011;10535;50.664;4.564;2023-05-10T04:32:49;11.03;;;5.17;;
20749;SDS011;10535;50.664;4.564;2023-05-10T04:39:44;12.80;;;4.77;;
20749;SDS011;10535;50.664;4.564;2023-05-10T04:42:53;12.97;;;5.00;;
20749;SDS011;10535;50.664;4.564;2023-05-10T04:46:10;8.53;;;4.60;;
20749;SDS011;10535;50.664;4.564;2023-05-10T04:49:18;9.33;;;5.40;;
20749;SDS011;10535;50.664;4.564;2023-05-10T04:52:25;9.43;;;5.43;;
20749;SDS011;10535;50.664;4.564;2023-05-10T04:55:17;8.30;;;5.47;;
20749;SDS011;10535;50.664;4.564;2023-05-10T04:58:54;7.93;;;4.43;;
20749;SDS011;10535;50.664;4.564;2023-05-10T05:01:46;10.27;;;4.53;;
20749;SDS011;10535;50.664;4.564;2023-05-10T05:04:55;7.97;;;4.17;;
20749;SDS011;10535;50.664;4.564;2023-05-10T05:08:04;5.50;;;3.03;;
20749;SDS011;10535;50.664;4.564;2023-05-10T05:11:10;4.10;;;2.10;;
20749;SDS011;10535;50.664;4.564;2023-05-10T05:14:25;5.57;;;1.70;;
20749;SDS011;10535;50.664;4.564;2023-05-10T05:18:11;2.70;;;1.43;;
20749;SDS011;10535;50.664;4.564;2023-05-10T05:21:51;2.43;;;1.83;;
20749;SDS011;10535;50.664;4.564;2023-05-10T05:24:17;3.97;;;1.93;;
20749;SDS011;10535;50.664;4.564;2023-05-10T05:26:46;2.30;;;1.70;;
20749;SDS011;10535;50.664;4.564;2023-05-10T05:29:55;5.17;;;1.63;;
20749;SDS011;10535;50.664;4.564;2023-05-10T05:33:04;6.00;;;2.33;;
20749;SDS011;10535;50.664;4.564;2023-05-10T05:36:08;3.77;;;1.83;;
20749;SDS011;10535;50.664;4.564;2023-05-10T05:45:26;2.17;;;1.77;;
20749;SDS011;10535;50.664;4.564;2023-05-10T05:48:40;4.50;;;2.00;;
20749;SDS011;10535;50.664;4.564;2023-05-10T05:52:12;4.67;;;1.67;;
20749;SDS011;10535;50.664;4.564;2023-05-10T05:55:23;5.47;;;1.77;;
20749;SDS011;10535;50.664;4.564;2023-05-10T05:59:04;3.50;;;1.83;;
20749;SDS011;10535;50.664;4.564;2023-05-10T06:02:18;2.13;;;1.73;;
20749;SDS011;10535;50.664;4.564;2023-05-10T06:05:22;2.77;;;1.80;;
20749;SDS011;10535;50.664;4.564;2023-05-10T06:08:33;4.07;;;1.77;;
20749;SDS011;10535;50.664;4.564;2023-05-10T06:11:38;5.90;;;1.97;;
20749;SDS011;10535;50.664;4.564;2023-05-10T06:14:26;3.07;;;1.53;;
20749;SDS011;10535;50.664;4.564;2023-05-10T06:17:54;5.60;;;2.03;;
20749;SDS011;10535;50.664;4.564;2023-05-10T06:21:23;7.20;;;2.20;;
20749;SDS011;10535;50.664;4.564;2023-05-10T06:24:24;5.40;;;2.47;;
20749;SDS011;10535;50.664;4.564;2023-05-10T06:27:25;3.17;;;1.73;;
20749;SDS011;10535;50.664;4.564;2023-05-10T06:29:54;3.43;;;1.67;;
20749;SDS011;10535;50.664;4.564;2023-05-10T06:38:16;3.33;;;1.90;;
20749;SDS011;10535;50.664;4.564;2023-05-10T06:41:24;3.20;;;1.60;;
20749;SDS011;10535;50.664;4.564;2023-05-10T06:44:12;2.07;;;1.83;;
20749;SDS011;10535;50.664;4.564;2023-05-10T06:46:57;3.53;;;1.93;;
20749;SDS011;10535;50.664;4.564;2023-05-10T06:49:55;2.43;;;1.70;;
20749;SDS011;10535;50.664;4.564;2023-05-10T06:53:03;1.60;;;1.20;;
20749;SDS011;10535;50.664;4.564;2023-05-10T06:55:49;1.90;;;1.70;;
20749;SDS011;10535;50.664;4.564;2023-05-10T06:58:49;4.50;;;1.73;;
20749;SDS011;10535;50.664;4.564;2023-05-10T07:01:27;2.07;;;1.83;;
20749;SDS011;10535;50.664;4.564;2023-05-10T07:04:48;3.43;;;1.60;;
20749;SDS011;10535;50.664;4.564;2023-05-10T07:08:05;3.53;;;1.70;;
20749;SDS011;10535;50.664;4.564;2023-05-10T07:11:01;5.17;;;1.77;;
20749;SDS011;10535;50.664;4.564;2023-05-10T07:13:49;2.63;;;2.13;;
20749;SDS011;10535;50.664;4.564;2023-05-10T07:20:17;2.50;;;1.50;;
20749;SDS011;10535;50.664;4.564;2023-05-10T07:23:30;2.50;;;1.70;;
20749;SDS011;10535;50.664;4.564;2023-05-10T07:25:58;2.27;;;1.30;;
20749;SDS011;10535;50.664;4.564;2023-05-10T07:29:11;1.57;;;1.20;;
20749;SDS011;10535;50.664;4.564;2023-05-10T07:32:06;3.33;;;1.83;;
20749;SDS011;10535;50.664;4.564;2023-05-10T07:35:03;2.57;;;1.73;;
20749;SDS011;10535;50.664;4.564;2023-05-10T07:38:04;3.10;;;1.90;;
20749;SDS011;10535;50.664;4.564;2023-05-10T07:40:46;4.10;;;1.50;;
20749;SDS011;10535;50.664;4.564;2023-05-10T07:43:41;2.33;;;1.10;;
20749;SDS011;10535;50.664;4.564;2023-05-10T07:46:34;1.30;;;0.87;;
20749;SDS011;10535;50.664;4.564;2023-05-10T07:48:59;1.10;;;1.00;;
20749;SDS011;10535;50.664;4.564;2023-05-10T07:51:49;1.40;;;1.00;;
20749;SDS011;10535;50.664;4.564;2023-05-10T07:55:02;2.83;;;1.00;;
20749;SDS011;10535;50.664;4.564;2023-05-10T07:57:47;1.43;;;1.20;;
20749;SDS011;10535;50.664;4.564;2023-05-10T08:07:42;1.07;;;0.97;;
20749;SDS011;10535;50.664;4.564;2023-05-10T08:10:17;4.00;;;1.00;;
20749;SDS011;10535;50.664;4.564;2023-05-10T08:13:29;0.90;;;0.80;;
20749;SDS011;10535;50.664;4.564;2023-05-10T08:19:54;3.00;;;1.10;;
20749;SDS011;10535;50.664;4.564;2023-05-10T08:23:00;2.60;;;1.27;;
20749;SDS011;10535;50.664;4.564;2023-05-10T08:26:13;1.03;;;0.80;;
20749;SDS011;10535;50.664;4.564;2023-05-10T08:29:02;0.70;;;0.70;;
20749;SDS011;10535;50.664;4.564;2023-05-10T08:31:37;1.27;;;1.07;;
20749;SDS011;10535;50.664;4.564;2023-05-10T08:34:09;1.20;;;1.00;;
20749;SDS011;10535;50.664;4.564;2023-05-10T08:36:49;2.17;;;1.20;;
20749;SDS011;10535;50.664;4.564;2023-05-10T08:39:46;1.67;;;1.00;;
20749;SDS011;10535;50.664;4.564;2023-05-10T08:42:40;1.57;;;1.17;;
20749;SDS011;10535;50.664;4.564;2023-05-10T08:45:26;1.10;;;1.00;;
20749;SDS011;10535;50.664;4.564;2023-05-10T08:48:09;2.97;;;1.20;;
20749;SDS011;10535;50.664;4.564;2023-05-10T08:53:32;1.03;;;0.93;;
20749;SDS011;10535;50.664;4.564;2023-05-10T08:56:09;1.90;;;1.20;;
20749;SDS011;10535;50.664;4.564;2023-05-10T08:59:25;1.20;;;0.93;;
20749;SDS011;10535;50.664;4.564;2023-05-10T09:02:28;2.03;;;1.00;;
20749;SDS011;10535;50.664;4.564;2023-05-10T09:05:57;1.23;;;1.10;;
20749;SDS011;10535;50.664;4.564;2023-05-10T09:08:42;1.80;;;0.80;;
20749;SDS011;10535;50.664;4.564;2023-05-10T09:11:29;1.10;;;1.00;;
20749;SDS011;10535;50.664;4.564;2023-05-10T09:14:00;1.47;;;0.97;;
20749;SDS011;10535;50.664;4.564;2023-05-10T09:16:32;1.03;;;0.80;;
20749;SDS011;10535;50.664;4.564;2023-05-10T09:19:12;0.80;;;0.67;;
20749;SDS011;10535;50.664;4.564;2023-05-10T09:22:06;1.50;;;0.70;;
20749;SDS011;10535;50.664;4.564;2023-05-10T09:24:43;0.67;;;0.67;;
20749;SDS011;10535;50.664;4.564;2023-05-10T09:27:38;1.60;;;0.90;;
20749;SDS011;10535;50.664;4.564;2023-05-10T09:30:43;1.60;;;0.70;;
20749;SDS011;10535;50.664;4.564;2023-05-10T09:34:15;0.57;;;0.57;;
20749;SDS011;10535;50.664;4.564;2023-05-10T09:37:01;1.20;;;1.00;;
20749;SDS011;10535;50.664;4.564;2023-05-10T09:39:37;1.17;;;0.80;;
20749;SDS011;10535;50.664;4.564;2023-05-10T09:42:13;0.70;;;0.70;;
20749;SDS011;10535;50.664;4.564;2023-05-10T09:45:09;1.27;;;1.03;;
20749;SDS011;10535;50.664;4.564;2023-05-10T09:47:39;1.70;;;0.70;;
20749;SDS011;10535;50.664;4.564;2023-05-10T09:50:31;0.80;;;0.80;;
20749;SDS011;10535;50.664;4.564;2023-05-10T09:53:02;0.87;;;0.80;;
20749;SDS011;10535;50.664;4.564;2023-05-10T09:55:44;1.90;;;1.10;;
20749;SDS011;10535;50.664;4.564;2023-05-10T10:01:49;1.77;;;1.20;;
20749;SDS011;10535;50.664;4.564;2023-05-10T10:04:48;1.97;;;1.77;;
20749;SDS011;10535;50.664;4.564;2023-05-10T10:07:38;1.93;;;1.20;;
20749;SDS011;10535;50.664;4.564;2023-05-10T10:10:34;2.10;;;1.60;;
20749;SDS011;10535;50.664;4.564;2023-05-10T10:13:08;3.93;;;2.37;;
20749;SDS011;10535;50.664;4.564;2023-05-10T10:15:42;3.83;;;2.03;;
20749;SDS011;10535;50.664;4.564;2023-05-10T10:18:13;4.27;;;2.70;;
20749;SDS011;10535;50.664;4.564;2023-05-10T10:20:42;5.53;;;2.67;;
20749;SDS011;10535;50.664;4.564;2023-05-10T10:26:00;3.90;;;2.43;;
20749;SDS011;10535;50.664;4.564;2023-05-10T10:31:27;3.73;;;2.57;;
20749;SDS011;10535;50.664;4.564;2023-05-10T10:34:32;3.43;;;2.27;;
20749;SDS011;10535;50.664;4.564;2023-05-10T10:37:50;3.40;;;2.60;;
20749;SDS011;10535;50.664;4.564;2023-05-10T10:41:02;2.90;;;1.90;;
20749;SDS011;10535;50.664;4.564;2023-05-10T10:44:34;3.67;;;2.07;;
20749;SDS011;10535;50.664;4.564;2023-05-10T10:47:07;3.33;;;1.97;;
20749;SDS011;10535;50.664;4.564;2023-05-10T10:52:37;3.00;;;2.47;;
20749;SDS011;10535;50.664;4.564;2023-05-10T10:56:17;2.57;;;2.17;;
20749;SDS011;10535;50.664;4.564;2023-05-10T10:59:26;4.50;;;2.23;;
20749;SDS011;10535;50.664;4.564;2023-05-10T11:02:44;5.43;;;3.10;;
20749;SDS011;10535;50.664;4.564;2023-05-10T11:05:47;4.10;;;2.30;;
20749;SDS011;10535;50.664;4.564;2023-05-10T11:08:50;3.20;;;2.07;;
20749;SDS011;10535;50.664;4.564;2023-05-10T11:11:52;5.13;;;2.87;;
20749;SDS011;10535;50.664;4.564;2023-05-10T11:15:09;4.43;;;2.73;;
20749;SDS011;10535;50.664;4.564;2023-05-10T11:18:32;4.23;;;2.40;;
20749;SDS011;10535;50.664;4.564;2023-05-10T11:22:14;4.67;;;2.10;;
20749;SDS011;10535;50.664;4.564;2023-05-10T11:24:39;5.53;;;2.43;;
20749;SDS011;10535;50.664;4.564;2023-05-10T11:27:56;3.43;;;2.27;;
20749;SDS011;10535;50.664;4.564;2023-05-10T11:30:46;4.10;;;2.07;;
20749;SDS011;10535;50.664;4.564;2023-05-10T11:34:22;7.77;;;2.80;;
20749;SDS011;10535;50.664;4.564;2023-05-10T11:37:39;2.97;;;2.23;;
20749;SDS011;10535;50.664;4.564;2023-05-10T11:40:30;3.47;;;2.90;;
20749;SDS011;10535;50.664;4.564;2023-05-10T11:44:13;3.73;;;2.53;;
20749;SDS011;10535;50.664;4.564;2023-05-10T11:47:44;4.90;;;2.67;;
20749;SDS011;10535;50.664;4.564;2023-05-10T11:51:21;4.97;;;2.30;;
20749;SDS011;10535;50.664;4.564;2023-05-10T11:57:52;4.23;;;2.47;;
20749;SDS011;10535;50.664;4.564;2023-05-10T12:01:03;4.03;;;2.37;;
20749;SDS011;10535;50.664;4.564;2023-05-10T12:04:23;3.17;;;2.30;;
20749;SDS011;10535;50.664;4.564;2023-05-10T12:07:20;4.40;;;2.10;;
20749;SDS011;10535;50.664;4.564;2023-05-10T12:10:08;5.03;;;3.00;;
20749;SDS011;10535;50.664;4.564;2023-05-10T12:12:42;3.47;;;1.80;;
20749;SDS011;10535;50.664;4.564;2023-05-10T12:15:27;2.60;;;1.90;;
20749;SDS011;10535;50.664;4.564;2023-05-10T12:17:53;2.83;;;2.20;;
20749;SDS011;10535;50.664;4.564;2023-05-10T12:20:19;1.90;;;1.23;;
20749;SDS011;10535;50.664;4.564;2023-05-10T12:22:47;3.93;;;1.90;;
20749;SDS011;10535;50.664;4.564;2023-05-10T12:25:16;3.83;;;1.90;;
20749;SDS011;10535;50.664;4.564;2023-05-10T12:27:50;3.83;;;1.70;;
20749;SDS011;10535;50.664;4.564;2023-05-10T12:30:20;5.67;;;1.80;;
20749;SDS011;10535;50.664;4.564;2023-05-10T12:32:50;4.83;;;2.63;;
20749;SDS011;10535;50.664;4.564;2023-05-10T12:35:16;7.23;;;2.30;;
20749;SDS011;10535;50.664;4.564;2023-05-10T12:37:45;4.90;;;2.70;;
20749;SDS011;10535;50.664;4.564;2023-05-10T12:40:11;4.40;;;2.57;;
20749;SDS011;10535;50.664;4.564;2023-05-10T12:42:38;4.20;;;2.60;;
20749;SDS011;10535;50.664;4.564;2023-05-10T12:45:05;3.90;;;2.57;;
20749;SDS011;10535;50.664;4.564;2023-05-10T12:47:31;3.93;;;2.27;;
20749;SDS011;10535;50.664;4.564;2023-05-10T12:49:57;4.50;;;2.60;;
20749;SDS011;10535;50.664;4.564;2023-05-10T12:52:25;3.67;;;2.97;;
20749;SDS011;10535;50.664;4.564;2023-05-10T12:54:51;4.80;;;2.60;;
20749;SDS011;10535;50.664;4.564;2023-05-10T12:57:17;3.77;;;2.40;;
20749;SDS011;10535;50.664;4.564;2023-05-10T12:59:43;3.77;;;2.70;;
20749;SDS011;10535;50.664;4.564;2023-05-10T13:02:09;5.20;;;3.10;;
20749;SDS011;10535;50.664;4.564;2023-05-10T13:04:35;4.93;;;2.80;;
20749;SDS011;10535;50.664;4.564;2023-05-10T13:07:06;7.20;;;3.53;;
20749;SDS011;10535;50.664;4.564;2023-05-10T13:09:31;6.37;;;2.97;;
20749;SDS011;10535;50.664;4.564;2023-05-10T13:11:57;5.13;;;3.00;;
20749;SDS011;10535;50.664;4.564;2023-05-10T13:14:23;8.23;;;2.83;;
20749;SDS011;10535;50.664;4.564;2023-05-10T13:16:50;7.90;;;3.53;;
20749;SDS011;10535;50.664;4.564;2023-05-10T13:19:16;6.00;;;3.40;;
20749;SDS011;10535;50.664;4.564;2023-05-10T13:21:42;6.97;;;3.43;;
20749;SDS011;10535;50.664;4.564;2023-05-10T13:24:09;5.77;;;3.23;;
20749;SDS011;10535;50.664;4.564;2023-05-10T13:26:35;7.33;;;3.57;;
20749;SDS011;10535;50.664;4.564;2023-05-10T13:29:02;5.33;;;2.97;;
20749;SDS011;10535;50.664;4.564;2023-05-10T13:31:28;7.37;;;3.30;;
20749;SDS011;10535;50.664;4.564;2023-05-10T13:33:54;5.70;;;3.10;;
20749;SDS011;10535;50.664;4.564;2023-05-10T13:36:20;5.93;;;3.07;;
20749;SDS011;10535;50.664;4.564;2023-05-10T13:38:46;5.10;;;2.90;;
20749;SDS011;10535;50.664;4.564;2023-05-10T13:41:11;8.33;;;4.13;;
20749;SDS011;10535;50.664;4.564;2023-05-10T13:43:37;7.30;;;3.63;;
20749;SDS011;10535;50.664;4.564;2023-05-10T13:46:03;5.77;;;3.30;;
20749;SDS011;10535;50.664;4.564;2023-05-10T13:48:28;7.17;;;3.40;;
20749;SDS011;10535;50.664;4.564;2023-05-10T13:50:54;5.93;;;2.67;;
20749;SDS011;10535;50.664;4.564;2023-05-10T13:53:20;5.00;;;2.87;;
20749;SDS011;10535;50.664;4.564;2023-05-10T13:55:46;6.10;;;3.10;;
20749;SDS011;10535;50.664;4.564;2023-05-10T13:58:12;4.03;;;2.37;;
20749;SDS011;10535;50.664;4.564;2023-05-10T14:00:37;3.97;;;2.57;;
20749;SDS011;10535;50.664;4.564;2023-05-10T14:03:03;3.03;;;2.30;;
20749;SDS011;10535;50.664;4.564;2023-05-10T14:05:30;3.30;;;1.90;;
20749;SDS011;10535;50.664;4.564;2023-05-10T14:07:55;3.10;;;1.63;;
20749;SDS011;10535;50.664;4.564;2023-05-10T14:10:22;3.97;;;1.50;;
20749;SDS011;10535;50.664;4.564;2023-05-10T14:12:47;1.87;;;1.30;;
20749;SDS011;10535;50.664;4.564;2023-05-10T14:15:13;2.73;;;0.90;;
20749;SDS011;10535;50.664;4.564;2023-05-10T14:17:39;1.80;;;1.57;;
20749;SDS011;10535;50.664;4.564;2023-05-10T14:20:05;1.53;;;1.23;;
20749;SDS011;10535;50.664;4.564;2023-05-10T14:22:31;8.83;;;1.60;;
20749;SDS011;10535;50.664;4.564;2023-05-10T14:24:57;1.77;;;1.10;;
20749;SDS011;10535;50.664;4.564;2023-05-10T14:27:23;2.13;;;1.17;;
20749;SDS011;10535;50.664;4.564;2023-05-10T14:29:49;2.87;;;1.43;;
20749;SDS011;10535;50.664;4.564;2023-05-10T14:32:15;1.27;;;0.83;;
20749;SDS011;10535;50.664;4.564;2023-05-10T14:34:40;1.63;;;1.33;;
20749;SDS011;10535;50.664;4.564;2023-05-10T14:37:06;4.27;;;1.37;;
20749;SDS011;10535;50.664;4.564;2023-05-10T14:39:32;2.90;;;1.77;;
20749;SDS011;10535;50.664;4.564;2023-05-10T14:41:58;2.20;;;1.47;;
20749;SDS011;10535;50.664;4.564;2023-05-10T14:44:23;3.47;;;1.87;;
20749;SDS011;10535;50.664;4.564;2023-05-10T14:46:49;3.27;;;2.23;;
20749;SDS011;10535;50.664;4.564;2023-05-10T14:49:15;2.40;;;2.13;;
20749;SDS011;10535;50.664;4.564;2023-05-10T14:51:41;3.00;;;2.10;;
20749;SDS011;10535;50.664;4.564;2023-05-10T14:54:07;3.43;;;2.10;;
20749;SDS011;10535;50.664;4.564;2023-05-10T14:56:32;3.10;;;2.57;;
20749;SDS011;10535;50.664;4.564;2023-05-10T14:58:58;4.17;;;2.13;;
20749;SDS011;10535;50.664;4.564;2023-05-10T15:01:25;9.00;;;2.30;;
20749;SDS011;10535;50.664;4.564;2023-05-10T15:03:50;4.80;;;2.23;;
20749;SDS011;10535;50.664;4.564;2023-05-10T15:06:22;4.23;;;2.30;;
20749;SDS011;10535;50.664;4.564;2023-05-10T15:08:50;3.97;;;2.23;;
20749;SDS011;10535;50.664;4.564;2023-05-10T15:11:16;2.70;;;2.13;;
20749;SDS011;10535;50.664;4.564;2023-05-10T15:13:42;3.87;;;2.23;;
20749;SDS011;10535;50.664;4.564;2023-05-10T15:16:08;4.77;;;2.50;;
20749;SDS011;10535;50.664;4.564;2023-05-10T15:18:33;2.77;;;2.00;;
20749;SDS011;10535;50.664;4.564;2023-05-10T15:20:59;4.60;;;2.50;;
20749;SDS011;10535;50.664;4.564;2023-05-10T15:23:25;3.30;;;2.23;;
20749;SDS011;10535;50.664;4.564;2023-05-10T15:25:51;5.17;;;2.70;;
20749;SDS011;10535;50.664;4.564;2023-05-10T15:28:20;5.50;;;3.37;;
20749;SDS011;10535;50.664;4.564;2023-05-10T15:30:46;5.80;;;3.40;;
20749;SDS011;10535;50.664;4.564;2023-05-10T15:33:12;4.47;;;2.80;;
20749;SDS011;10535;50.664;4.564;2023-05-10T15:35:37;6.53;;;3.83;;
20749;SDS011;10535;50.664;4.564;2023-05-10T15:38:04;9.10;;;5.10;;
20749;SDS011;10535;50.664;4.564;2023-05-10T15:40:30;10.53;;;5.40;;
20749;SDS011;10535;50.664;4.564;2023-05-10T15:42:56;17.27;;;7.10;;
20749;SDS011;10535;50.664;4.564;2023-05-10T15:45:22;17.17;;;6.53;;
20749;SDS011;10535;50.664;4.564;2023-05-10T15:47:47;10.60;;;5.90;;
20749;SDS011;10535;50.664;4.564;2023-05-10T15:50:14;9.37;;;5.27;;
20749;SDS011;10535;50.664;4.564;2023-05-10T15:52:40;10.10;;;4.27;;
20749;SDS011;10535;50.664;4.564;2023-05-10T15:55:06;10.53;;;4.70;;
20749;SDS011;10535;50.664;4.564;2023-05-10T15:57:39;11.70;;;5.53;;
20749;SDS011;10535;50.664;4.564;2023-05-10T16:00:07;18.27;;;6.67;;
20749;SDS011;10535;50.664;4.564;2023-05-10T16:02:33;11.67;;;6.17;;
20749;SDS011;10535;50.664;4.564;2023-05-10T16:04:59;9.53;;;5.70;;
20749;SDS011;10535;50.664;4.564;2023-05-10T16:07:25;12.40;;;6.13;;
20749;SDS011;10535;50.664;4.564;2023-05-10T16:09:51;14.87;;;6.47;;
20749;SDS011;10535;50.664;4.564;2023-05-10T16:12:16;11.67;;;5.97;;
20749;SDS011;10535;50.664;4.564;2023-05-10T16:14:42;10.67;;;5.57;;
20749;SDS011;10535;50.664;4.564;2023-05-10T16:17:08;9.67;;;5.90;;
20749;SDS011;10535;50.664;4.564;2023-05-10T16:19:34;10.47;;;5.90;;
20749;SDS011;10535;50.664;4.564;2023-05-10T16:21:59;9.50;;;5.33;;
20749;SDS011;10535;50.664;4.564;2023-05-10T16:24:25;9.50;;;5.67;;
20749;SDS011;10535;50.664;4.564;2023-05-10T16:26:51;10.47;;;5.03;;
20749;SDS011;10535;50.664;4.564;2023-05-10T16:29:17;10.07;;;5.33;;
20749;SDS011;10535;50.664;4.564;2023-05-10T16:31:43;9.53;;;5.40;;
20749;SDS011;10535;50.664;4.564;2023-05-10T16:34:08;11.73;;;5.97;;
20749;SDS011;10535;50.664;4.564;2023-05-10T16:36:34;8.70;;;5.43;;
20749;SDS011;10535;50.664;4.564;2023-05-10T16:39:00;8.20;;;5.27;;
20749;SDS011;10535;50.664;4.564;2023-05-10T16:41:26;7.60;;;4.33;;
20749;SDS011;10535;50.664;4.564;2023-05-10T16:43:53;11.20;;;5.30;;
20749;SDS011;10535;50.664;4.564;2023-05-10T16:46:19;12.50;;;5.97;;
20749;SDS011;10535;50.664;4.564;2023-05-10T16:48:44;9.73;;;5.13;;
20749;SDS011;10535;50.664;4.564;2023-05-10T16:51:10;11.93;;;5.40;;
20749;SDS011;10535;50.664;4.564;2023-05-10T16:53:36;7.60;;;4.97;;
20749;SDS011;10535;50.664;4.564;2023-05-10T16:56:02;8.70;;;4.80;;
20749;SDS011;10535;50.664;4.564;2023-05-10T16:58:28;9.93;;;4.83;;
20749;SDS011;10535;50.664;4.564;2023-05-10T17:00:53;10.23;;;6.23;;
20749;SDS011;10535;50.664;4.564;2023-05-10T17:03:19;13.10;;;5.60;;
20749;SDS011;10535;50.664;4.564;2023-05-10T17:05:45;9.77;;;5.50;;
20749;SDS011;10535;50.664;4.564;2023-05-10T17:08:11;8.57;;;5.63;;
20749;SDS011;10535;50.664;4.564;2023-05-10T17:10:41;8.60;;;5.83;;
20749;SDS011;10535;50.664;4.564;2023-05-10T17:13:07;9.90;;;5.13;;
20749;SDS011;10535;50.664;4.564;2023-05-10T17:15:34;9.23;;;4.67;;
20749;SDS011;10535;50.664;4.564;2023-05-10T17:18:01;12.33;;;5.43;;
20749;SDS011;10535;50.664;4.564;2023-05-10T17:20:30;8.37;;;5.33;;
20749;SDS011;10535;50.664;4.564;2023-05-10T17:22:56;10.40;;;6.10;;
20749;SDS011;10535;50.664;4.564;2023-05-10T17:25:22;8.03;;;5.27;;
20749;SDS011;10535;50.664;4.564;2023-05-10T17:27:48;12.87;;;5.50;;
20749;SDS011;10535;50.664;4.564;2023-05-10T17:30:14;11.27;;;5.87;;
20749;SDS011;10535;50.664;4.564;2023-05-10T17:32:40;9.80;;;5.67;;
20749;SDS011;10535;50.664;4.564;2023-05-10T17:35:05;10.33;;;5.93;;
20749;SDS011;10535;50.664;4.564;2023-05-10T17:37:32;7.60;;;5.23;;
20749;SDS011;10535;50.664;4.564;2023-05-10T17:39:58;12.73;;;6.63;;
20749;SDS011;10535;50.664;4.564;2023-05-10T17:42:24;11.23;;;5.70;;
20749;SDS011;10535;50.664;4.564;2023-05-10T17:44:50;8.27;;;5.40;;
20749;SDS011;10535;50.664;4.564;2023-05-10T17:47:16;11.07;;;6.67;;
20749;SDS011;10535;50.664;4.564;2023-05-10T17:49:42;12.07;;;5.33;;
20749;SDS011;10535;50.664;4.564;2023-05-10T17:52:08;10.40;;;5.40;;
20749;SDS011;10535;50.664;4.564;2023-05-10T17:54:34;12.07;;;6.73;;
20749;SDS011;10535;50.664;4.564;2023-05-10T17:56:59;10.73;;;5.57;;
20749;SDS011;10535;50.664;4.564;2023-05-10T17:59:26;10.33;;;5.67;;
20749;SDS011;10535;50.664;4.564;2023-05-10T18:01:52;10.33;;;5.90;;
20749;SDS011;10535;50.664;4.564;2023-05-10T18:04:18;10.43;;;6.07;;
20749;SDS011;10535;50.664;4.564;2023-05-10T18:06:43;18.03;;;6.33;;
20749;SDS011;10535;50.664;4.564;2023-05-10T18:09:09;9.33;;;6.47;;
20749;SDS011;10535;50.664;4.564;2023-05-10T18:11:35;8.97;;;5.67;;
20749;SDS011;10535;50.664;4.564;2023-05-10T18:14:02;10.90;;;5.80;;
20749;SDS011;10535;50.664;4.564;2023-05-10T18:16:30;12.73;;;5.87;;
20749;SDS011;10535;50.664;4.564;2023-05-10T18:19:07;9.93;;;5.70;;
20749;SDS011;10535;50.664;4.564;2023-05-10T18:21:35;12.83;;;7.27;;
20749;SDS011;10535;50.664;4.564;2023-05-10T18:24:02;9.50;;;5.63;;
20749;SDS011;10535;50.664;4.564;2023-05-10T18:26:34;8.80;;;5.10;;
20749;SDS011;10535;50.664;4.564;2023-05-10T18:29:00;15.77;;;6.50;;
20749;SDS011;10535;50.664;4.564;2023-05-10T18:31:28;10.70;;;6.20;;
20749;SDS011;10535;50.664;4.564;2023-05-10T18:33:55;14.97;;;6.93;;
20749;SDS011;10535;50.664;4.564;2023-05-10T18:36:21;15.03;;;7.10;;
20749;SDS011;10535;50.664;4.564;2023-05-10T18:38:47;12.67;;;6.90;;
20749;SDS011;10535;50.664;4.564;2023-05-10T18:41:17;10.67;;;7.03;;
20749;SDS011;10535;50.664;4.564;2023-05-10T18:43:51;12.87;;;7.53;;
20749;SDS011;10535;50.664;4.564;2023-05-10T18:46:25;12.67;;;7.60;;
20749;SDS011;10535;50.664;4.564;2023-05-10T18:48:51;10.50;;;7.00;;
20749;SDS011;10535;50.664;4.564;2023-05-10T18:51:19;16.33;;;7.30;;
20749;SDS011;10535;50.664;4.564;2023-05-10T18:53:47;15.43;;;7.43;;
20749;SDS011;10535;50.664;4.564;2023-05-10T18:56:14;15.50;;;7.43;;
20749;SDS011;10535;50.664;4.564;2023-05-10T18:58:40;12.20;;;7.13;;
20749;SDS011;10535;50.664;4.564;2023-05-10T19:01:07;11.13;;;7.20;;